sensor_id;sensor_type;location;lat;lon;timestamp;temperature;humidity
12025;DHT22;6073;53.230;10.444;2022-08-04T00:00:30;20.40;99.90
12025;DHT22;6073;53.230;10.444;2022-08-04T00:03:18;20.40;99.90
12025;DHT22;6073;53.230;10.444;2022-08-04T00:10:58;20.30;99.90
12025;DHT22;6073;53.230;10.444;2022-08-04T00:13:27;20.30;99.90
12025;DHT22;6073;53.230;10.444;2022-08-04T00:16:08;20.20;99.90
12025;DHT22;6073;53.230;10.444;2022-08-04T00:18:49;20.20;99.90
12025;DHT22;6073;53.230;10.444;2022-08-04T00:21:17;20.10;99.90
12025;DHT22;6073;53.230;10.444;2022-08-04T00:23:44;20.10;99.90
12025;DHT22;6073;53.230;10.444;2022-08-04T00:26:10;20.10;99.90
12025;DHT22;6073;53.230;10.444;2022-08-04T00:28:37;20.10;99.90
12025;DHT22;6073;53.230;10.444;2022-08-04T00:31:07;20.10;99.90
12025;DHT22;6073;53.230;10.444;2022-08-04T00:33:34;20.10;99.90
12025;DHT22;6073;53.230;10.444;2022-08-04T00:36:01;20.10;99.90
12025;DHT22;6073;53.230;10.444;2022-08-04T00:38:28;20.10;99.90
12025;DHT22;6073;53.230;10.444;2022-08-04T00:44:05;20.00;99.90
12025;DHT22;6073;53.230;10.444;2022-08-04T00:49:30;20.00;99.90
12025;DHT22;6073;53.230;10.444;2022-08-04T00:54:58;20.00;99.90
12025;DHT22;6073;53.230;10.444;2022-08-04T01:00:15;19.90;99.90
12025;DHT22;6073;53.230;10.444;2022-08-04T01:03:08;19.80;99.90
12025;DHT22;6073;53.230;10.444;2022-08-04T01:05:50;19.80;99.90
12025;DHT22;6073;53.230;10.444;2022-08-04T01:08:44;19.70;99.90
12025;DHT22;6073;53.230;10.444;2022-08-04T01:17:24;19.60;99.90
12025;DHT22;6073;53.230;10.444;2022-08-04T01:20:10;19.60;99.90
12025;DHT22;6073;53.230;10.444;2022-08-04T01:30:48;19.40;99.90
12025;DHT22;6073;53.230;10.444;2022-08-04T01:33:16;19.30;99.90
12025;DHT22;6073;53.230;10.444;2022-08-04T01:35:56;19.30;99.90
12025;DHT22;6073;53.230;10.444;2022-08-04T01:38:34;19.30;99.90
12025;DHT22;6073;53.230;10.444;2022-08-04T01:41:06;19.20;99.90
12025;DHT22;6073;53.230;10.444;2022-08-04T01:43:33;19.20;99.90
12025;DHT22;6073;53.230;10.444;2022-08-04T01:46:13;19.20;99.90
12025;DHT22;6073;53.230;10.444;2022-08-04T01:48:41;19.10;99.90
12025;DHT22;6073;53.230;10.444;2022-08-04T01:51:08;19.10;99.90
12025;DHT22;6073;53.230;10.444;2022-08-04T01:53:41;19.10;99.90
12025;DHT22;6073;53.230;10.444;2022-08-04T01:56:09;19.10;99.90
12025;DHT22;6073;53.230;10.444;2022-08-04T01:58:37;19.10;99.90
12025;DHT22;6073;53.230;10.444;2022-08-04T02:01:08;19.10;99.90
12025;DHT22;6073;53.230;10.444;2022-08-04T02:03:37;19.10;99.90
12025;DHT22;6073;53.230;10.444;2022-08-04T02:15:00;19.00;99.90
12025;DHT22;6073;53.230;10.444;2022-08-04T02:18:15;18.90;99.90
12025;DHT22;6073;53.230;10.444;2022-08-04T02:20:45;18.90;99.90
12025;DHT22;6073;53.230;10.444;2022-08-04T02:23:28;18.90;99.90
12025;DHT22;6073;53.230;10.444;2022-08-04T02:26:00;18.80;99.90
12025;DHT22;6073;53.230;10.444;2022-08-04T02:28:44;18.80;99.90
12025;DHT22;6073;53.230;10.444;2022-08-04T02:34:37;18.80;99.90
12025;DHT22;6073;53.230;10.444;2022-08-04T02:37:06;18.80;99.90
12025;DHT22;6073;53.230;10.444;2022-08-04T02:39:35;18.80;99.90
12025;DHT22;6073;53.230;10.444;2022-08-04T02:42:02;18.80;99.90
12025;DHT22;6073;53.230;10.444;2022-08-04T02:44:30;18.80;99.90
12025;DHT22;6073;53.230;10.444;2022-08-04T02:46:56;18.70;99.90
12025;DHT22;6073;53.230;10.444;2022-08-04T02:49:23;18.70;99.90
12025;DHT22;6073;53.230;10.444;2022-08-04T02:51:56;18.70;99.90
12025;DHT22;6073;53.230;10.444;2022-08-04T02:54:34;18.60;99.90
12025;DHT22;6073;53.230;10.444;2022-08-04T02:57:03;18.60;99.90
12025;DHT22;6073;53.230;10.444;2022-08-04T03:02:33;18.50;99.90
12025;DHT22;6073;53.230;10.444;2022-08-04T03:05:16;18.40;99.90
12025;DHT22;6073;53.230;10.444;2022-08-04T03:10:35;18.40;99.90
12025;DHT22;6073;53.230;10.444;2022-08-04T03:13:26;18.40;99.90
12025;DHT22;6073;53.230;10.444;2022-08-04T03:16:28;18.40;99.90
12025;DHT22;6073;53.230;10.444;2022-08-04T03:19:25;18.40;99.90
12025;DHT22;6073;53.230;10.444;2022-08-04T03:21:59;18.40;99.90
12025;DHT22;6073;53.230;10.444;2022-08-04T03:27:51;18.50;99.90
12025;DHT22;6073;53.230;10.444;2022-08-04T03:30:57;18.50;99.90
12025;DHT22;6073;53.230;10.444;2022-08-04T03:33:32;18.50;99.90
12025;DHT22;6073;53.230;10.444;2022-08-04T03:53:08;18.40;99.90
12025;DHT22;6073;53.230;10.444;2022-08-04T03:59:08;18.50;99.90
12025;DHT22;6073;53.230;10.444;2022-08-04T04:01:52;18.50;99.90
12025;DHT22;6073;53.230;10.444;2022-08-04T04:04:50;18.40;99.90
12025;DHT22;6073;53.230;10.444;2022-08-04T04:13:18;18.50;99.90
12025;DHT22;6073;53.230;10.444;2022-08-04T04:21:17;18.60;99.90
12025;DHT22;6073;53.230;10.444;2022-08-04T04:30:00;18.80;99.90
12025;DHT22;6073;53.230;10.444;2022-08-04T04:46:14;19.30;99.90
12025;DHT22;6073;53.230;10.444;2022-08-04T04:48:43;19.40;99.90
12025;DHT22;6073;53.230;10.444;2022-08-04T04:53:55;19.70;99.90
12025;DHT22;6073;53.230;10.444;2022-08-04T04:56:43;19.80;99.90
12025;DHT22;6073;53.230;10.444;2022-08-04T04:59:13;19.90;99.90
12025;DHT22;6073;53.230;10.444;2022-08-04T05:02:04;20.00;99.90
12025;DHT22;6073;53.230;10.444;2022-08-04T05:05:01;20.30;99.90
12025;DHT22;6073;53.230;10.444;2022-08-04T05:15:36;22.00;99.90
12025;DHT22;6073;53.230;10.444;2022-08-04T05:18:05;22.10;99.90
12025;DHT22;6073;53.230;10.444;2022-08-04T05:20:37;22.20;99.90
12025;DHT22;6073;53.230;10.444;2022-08-04T05:23:15;22.30;99.90
12025;DHT22;6073;53.230;10.444;2022-08-04T05:25:48;22.80;99.90
12025;DHT22;6073;53.230;10.444;2022-08-04T05:28:23;23.20;99.90
12025;DHT22;6073;53.230;10.444;2022-08-04T05:30:56;23.70;99.90
12025;DHT22;6073;53.230;10.444;2022-08-04T05:33:54;24.40;99.90
12025;DHT22;6073;53.230;10.444;2022-08-04T05:36:25;25.00;99.90
12025;DHT22;6073;53.230;10.444;2022-08-04T05:38:53;25.60;99.90
12025;DHT22;6073;53.230;10.444;2022-08-04T05:41:21;26.20;99.90
12025;DHT22;6073;53.230;10.444;2022-08-04T05:43:48;26.50;99.90
12025;DHT22;6073;53.230;10.444;2022-08-04T05:46:15;27.00;99.90
12025;DHT22;6073;53.230;10.444;2022-08-04T05:48:41;26.90;99.90
12025;DHT22;6073;53.230;10.444;2022-08-04T05:51:10;26.80;99.90
12025;DHT22;6073;53.230;10.444;2022-08-04T05:53:37;26.70;99.90
12025;DHT22;6073;53.230;10.444;2022-08-04T05:56:04;26.70;99.90
12025;DHT22;6073;53.230;10.444;2022-08-04T05:58:31;27.40;99.90
12025;DHT22;6073;53.230;10.444;2022-08-04T06:00:58;27.30;99.90
12025;DHT22;6073;53.230;10.444;2022-08-04T06:03:26;27.70;99.90
12025;DHT22;6073;53.230;10.444;2022-08-04T06:05:53;27.90;99.90
12025;DHT22;6073;53.230;10.444;2022-08-04T06:08:21;27.70;99.90
12025;DHT22;6073;53.230;10.444;2022-08-04T06:10:47;27.70;99.90
12025;DHT22;6073;53.230;10.444;2022-08-04T06:13:16;27.70;99.90
12025;DHT22;6073;53.230;10.444;2022-08-04T06:15:43;28.80;99.90
12025;DHT22;6073;53.230;10.444;2022-08-04T06:18:12;28.80;99.90
12025;DHT22;6073;53.230;10.444;2022-08-04T06:20:41;28.80;99.90
12025;DHT22;6073;53.230;10.444;2022-08-04T06:23:10;28.70;99.90
12025;DHT22;6073;53.230;10.444;2022-08-04T06:25:45;29.00;99.90
12025;DHT22;6073;53.230;10.444;2022-08-04T06:28:12;29.50;99.90
12025;DHT22;6073;53.230;10.444;2022-08-04T06:30:40;30.30;99.90
12025;DHT22;6073;53.230;10.444;2022-08-04T06:33:08;29.90;99.90
12025;DHT22;6073;53.230;10.444;2022-08-04T06:35:52;30.00;99.90
12025;DHT22;6073;53.230;10.444;2022-08-04T06:38:24;30.30;99.90
12025;DHT22;6073;53.230;10.444;2022-08-04T06:40:50;30.50;99.90
12025;DHT22;6073;53.230;10.444;2022-08-04T06:43:17;30.30;99.90
12025;DHT22;6073;53.230;10.444;2022-08-04T06:45:43;30.60;99.90
12025;DHT22;6073;53.230;10.444;2022-08-04T06:48:12;30.70;99.90
12025;DHT22;6073;53.230;10.444;2022-08-04T06:50:40;30.90;99.90
12025;DHT22;6073;53.230;10.444;2022-08-04T06:53:08;31.10;99.90
12025;DHT22;6073;53.230;10.444;2022-08-04T06:55:33;31.70;99.90
12025;DHT22;6073;53.230;10.444;2022-08-04T06:58:00;32.20;99.90
12025;DHT22;6073;53.230;10.444;2022-08-04T07:00:26;32.30;99.90
12025;DHT22;6073;53.230;10.444;2022-08-04T07:02:52;33.20;99.90
12025;DHT22;6073;53.230;10.444;2022-08-04T07:05:19;33.80;99.90
12025;DHT22;6073;53.230;10.444;2022-08-04T07:07:46;34.70;99.90
12025;DHT22;6073;53.230;10.444;2022-08-04T07:10:14;34.90;99.90
12025;DHT22;6073;53.230;10.444;2022-08-04T07:12:40;35.10;99.90
12025;DHT22;6073;53.230;10.444;2022-08-04T07:15:07;34.70;99.90
12025;DHT22;6073;53.230;10.444;2022-08-04T07:17:34;34.60;99.90
12025;DHT22;6073;53.230;10.444;2022-08-04T07:20:02;34.80;99.90
12025;DHT22;6073;53.230;10.444;2022-08-04T07:22:28;34.40;99.90
12025;DHT22;6073;53.230;10.444;2022-08-04T07:24:55;34.50;99.90
12025;DHT22;6073;53.230;10.444;2022-08-04T07:27:21;35.00;99.90
12025;DHT22;6073;53.230;10.444;2022-08-04T07:29:47;35.10;99.90
12025;DHT22;6073;53.230;10.444;2022-08-04T07:32:13;35.20;99.90
12025;DHT22;6073;53.230;10.444;2022-08-04T07:34:41;35.60;99.90
12025;DHT22;6073;53.230;10.444;2022-08-04T07:37:07;36.10;99.90
12025;DHT22;6073;53.230;10.444;2022-08-04T07:39:33;35.80;99.90
12025;DHT22;6073;53.230;10.444;2022-08-04T07:42:02;35.90;99.90
12025;DHT22;6073;53.230;10.444;2022-08-04T07:44:29;36.10;99.50
12025;DHT22;6073;53.230;10.444;2022-08-04T07:46:55;36.10;99.30
12025;DHT22;6073;53.230;10.444;2022-08-04T07:49:21;36.50;98.60
12025;DHT22;6073;53.230;10.444;2022-08-04T07:51:47;36.40;98.50
12025;DHT22;6073;53.230;10.444;2022-08-04T07:54:13;36.80;98.00
12025;DHT22;6073;53.230;10.444;2022-08-04T07:56:40;36.90;97.50
12025;DHT22;6073;53.230;10.444;2022-08-04T07:59:06;36.80;97.40
12025;DHT22;6073;53.230;10.444;2022-08-04T08:01:34;37.20;96.30
12025;DHT22;6073;53.230;10.444;2022-08-04T08:04:00;37.20;96.20
12025;DHT22;6073;53.230;10.444;2022-08-04T08:06:27;37.10;95.90
12025;DHT22;6073;53.230;10.444;2022-08-04T08:08:55;36.80;96.30
12025;DHT22;6073;53.230;10.444;2022-08-04T08:11:20;36.70;96.30
12025;DHT22;6073;53.230;10.444;2022-08-04T08:13:46;36.50;95.70
12025;DHT22;6073;53.230;10.444;2022-08-04T08:16:12;37.00;95.30
12025;DHT22;6073;53.230;10.444;2022-08-04T08:18:38;37.40;94.50
12025;DHT22;6073;53.230;10.444;2022-08-04T08:21:04;37.20;94.30
12025;DHT22;6073;53.230;10.444;2022-08-04T08:23:31;37.40;94.00
12025;DHT22;6073;53.230;10.444;2022-08-04T08:25:58;37.30;94.10
12025;DHT22;6073;53.230;10.444;2022-08-04T08:28:24;37.60;94.00
12025;DHT22;6073;53.230;10.444;2022-08-04T08:30:50;37.50;92.80
12025;DHT22;6073;53.230;10.444;2022-08-04T08:33:16;37.70;92.70
12025;DHT22;6073;53.230;10.444;2022-08-04T08:35:55;37.50;92.70
12025;DHT22;6073;53.230;10.444;2022-08-04T08:39:03;37.50;92.90
12025;DHT22;6073;53.230;10.444;2022-08-04T08:41:55;37.40;92.50
12025;DHT22;6073;53.230;10.444;2022-08-04T08:53:20;37.30;91.50
12025;DHT22;6073;53.230;10.444;2022-08-04T08:58:55;36.30;92.00
12025;DHT22;6073;53.230;10.444;2022-08-04T09:07:05;35.60;92.60
12025;DHT22;6073;53.230;10.444;2022-08-04T09:15:28;35.00;92.50
12025;DHT22;6073;53.230;10.444;2022-08-04T09:18:04;34.60;92.60
12025;DHT22;6073;53.230;10.444;2022-08-04T09:20:50;34.80;92.90
12025;DHT22;6073;53.230;10.444;2022-08-04T09:23:32;35.10;92.40
12025;DHT22;6073;53.230;10.444;2022-08-04T09:26:20;35.30;91.90
12025;DHT22;6073;53.230;10.444;2022-08-04T09:28:55;35.80;91.50
12025;DHT22;6073;53.230;10.444;2022-08-04T09:31:33;35.90;91.80
12025;DHT22;6073;53.230;10.444;2022-08-04T09:34:09;36.20;91.10
12025;DHT22;6073;53.230;10.444;2022-08-04T09:36:50;36.60;90.90
12025;DHT22;6073;53.230;10.444;2022-08-04T09:39:31;36.40;90.20
12025;DHT22;6073;53.230;10.444;2022-08-04T09:47:46;35.30;91.40
12025;DHT22;6073;53.230;10.444;2022-08-04T09:50:25;35.10;91.50
12025;DHT22;6073;53.230;10.444;2022-08-04T09:53:15;35.40;92.00
12025;DHT22;6073;53.230;10.444;2022-08-04T09:58:53;35.70;91.70
12025;DHT22;6073;53.230;10.444;2022-08-04T10:01:23;35.60;91.60
12025;DHT22;6073;53.230;10.444;2022-08-04T10:03:58;35.70;91.60
12025;DHT22;6073;53.230;10.444;2022-08-04T10:09:51;35.80;91.00
12025;DHT22;6073;53.230;10.444;2022-08-04T10:12:28;35.90;90.90
12025;DHT22;6073;53.230;10.444;2022-08-04T10:17:58;36.00;91.10
12025;DHT22;6073;53.230;10.444;2022-08-04T10:20:46;35.90;91.00
12025;DHT22;6073;53.230;10.444;2022-08-04T10:28:29;36.60;89.80
12025;DHT22;6073;53.230;10.444;2022-08-04T10:30:59;36.70;89.70
12025;DHT22;6073;53.230;10.444;2022-08-04T10:33:32;36.50;90.00
12025;DHT22;6073;53.230;10.444;2022-08-04T10:36:08;36.30;89.00
12025;DHT22;6073;53.230;10.444;2022-08-04T10:41:55;36.70;89.00
12025;DHT22;6073;53.230;10.444;2022-08-04T10:44:46;37.10;86.80
12025;DHT22;6073;53.230;10.444;2022-08-04T10:47:23;37.00;86.40
12025;DHT22;6073;53.230;10.444;2022-08-04T10:49:59;37.30;86.70
12025;DHT22;6073;53.230;10.444;2022-08-04T10:52:44;37.60;85.80
12025;DHT22;6073;53.230;10.444;2022-08-04T10:55:20;37.60;85.30
12025;DHT22;6073;53.230;10.444;2022-08-04T10:58:08;38.10;85.00
12025;DHT22;6073;53.230;10.444;2022-08-04T11:00:38;38.40;83.00
12025;DHT22;6073;53.230;10.444;2022-08-04T11:03:43;38.30;82.00
12025;DHT22;6073;53.230;10.444;2022-08-04T11:06:12;37.70;82.40
12025;DHT22;6073;53.230;10.444;2022-08-04T11:08:50;37.10;81.20
12025;DHT22;6073;53.230;10.444;2022-08-04T11:14:18;36.40;82.20
12025;DHT22;6073;53.230;10.444;2022-08-04T11:16:55;36.50;82.50
12025;DHT22;6073;53.230;10.444;2022-08-04T11:19:41;36.50;82.60
12025;DHT22;6073;53.230;10.444;2022-08-04T11:22:32;36.40;81.40
12025;DHT22;6073;53.230;10.444;2022-08-04T11:25:12;36.20;82.00
12025;DHT22;6073;53.230;10.444;2022-08-04T11:28:14;36.40;82.20
12025;DHT22;6073;53.230;10.444;2022-08-04T11:31:10;36.80;81.40
12025;DHT22;6073;53.230;10.444;2022-08-04T11:36:53;37.00;80.70
12025;DHT22;6073;53.230;10.444;2022-08-04T11:39:27;37.00;81.40
12025;DHT22;6073;53.230;10.444;2022-08-04T11:42:37;36.90;80.10
12025;DHT22;6073;53.230;10.444;2022-08-04T11:45:07;36.60;79.10
12025;DHT22;6073;53.230;10.444;2022-08-04T11:47:53;36.30;79.90
12025;DHT22;6073;53.230;10.444;2022-08-04T11:50:38;36.30;81.40
12025;DHT22;6073;53.230;10.444;2022-08-04T11:53:06;37.20;80.60
12025;DHT22;6073;53.230;10.444;2022-08-04T11:55:33;37.60;78.70
12025;DHT22;6073;53.230;10.444;2022-08-04T11:58:00;37.80;77.50
12025;DHT22;6073;53.230;10.444;2022-08-04T12:00:28;37.60;77.00
12025;DHT22;6073;53.230;10.444;2022-08-04T12:03:14;37.40;77.20
12025;DHT22;6073;53.230;10.444;2022-08-04T12:11:42;37.50;77.00
12025;DHT22;6073;53.230;10.444;2022-08-04T12:17:23;38.20;76.70
12025;DHT22;6073;53.230;10.444;2022-08-04T12:19:51;38.40;75.80
12025;DHT22;6073;53.230;10.444;2022-08-04T12:22:22;37.90;74.70
12025;DHT22;6073;53.230;10.444;2022-08-04T12:25:13;37.80;75.30
12025;DHT22;6073;53.230;10.444;2022-08-04T12:27:51;38.30;76.10
12025;DHT22;6073;53.230;10.444;2022-08-04T12:30:18;38.60;74.80
12025;DHT22;6073;53.230;10.444;2022-08-04T12:32:47;38.60;74.30
12025;DHT22;6073;53.230;10.444;2022-08-04T12:35:38;38.60;73.80
12025;DHT22;6073;53.230;10.444;2022-08-04T12:38:13;38.20;74.40
12025;DHT22;6073;53.230;10.444;2022-08-04T12:40:49;38.00;74.00
12025;DHT22;6073;53.230;10.444;2022-08-04T12:43:33;38.10;74.20
12025;DHT22;6073;53.230;10.444;2022-08-04T12:46:03;38.30;74.20
12025;DHT22;6073;53.230;10.444;2022-08-04T12:48:30;38.30;73.50
12025;DHT22;6073;53.230;10.444;2022-08-04T12:50:58;38.00;73.20
12025;DHT22;6073;53.230;10.444;2022-08-04T12:53:33;37.30;74.40
12025;DHT22;6073;53.230;10.444;2022-08-04T12:56:02;37.40;74.20
12025;DHT22;6073;53.230;10.444;2022-08-04T12:58:32;37.90;74.00
12025;DHT22;6073;53.230;10.444;2022-08-04T13:01:02;37.90;73.00
12025;DHT22;6073;53.230;10.444;2022-08-04T13:03:40;37.70;73.40
12025;DHT22;6073;53.230;10.444;2022-08-04T13:06:07;37.30;73.00
12025;DHT22;6073;53.230;10.444;2022-08-04T13:08:37;36.80;74.10
12025;DHT22;6073;53.230;10.444;2022-08-04T13:11:04;36.70;74.60
12025;DHT22;6073;53.230;10.444;2022-08-04T13:13:35;37.00;75.70
12025;DHT22;6073;53.230;10.444;2022-08-04T13:16:07;37.10;74.40
12025;DHT22;6073;53.230;10.444;2022-08-04T13:18:38;36.90;74.40
12025;DHT22;6073;53.230;10.444;2022-08-04T13:21:21;36.90;74.90
12025;DHT22;6073;53.230;10.444;2022-08-04T13:23:50;36.60;75.50
12025;DHT22;6073;53.230;10.444;2022-08-04T13:26:17;36.30;74.60
12025;DHT22;6073;53.230;10.444;2022-08-04T13:28:46;36.20;76.20
12025;DHT22;6073;53.230;10.444;2022-08-04T13:31:20;36.30;75.30
12025;DHT22;6073;53.230;10.444;2022-08-04T13:33:49;36.30;76.20
12025;DHT22;6073;53.230;10.444;2022-08-04T13:36:16;36.10;75.20
12025;DHT22;6073;53.230;10.444;2022-08-04T13:38:49;36.00;75.70
12025;DHT22;6073;53.230;10.444;2022-08-04T13:41:17;35.80;76.70
12025;DHT22;6073;53.230;10.444;2022-08-04T13:43:49;35.80;76.80
12025;DHT22;6073;53.230;10.444;2022-08-04T13:48:45;36.50;76.90
12025;DHT22;6073;53.230;10.444;2022-08-04T13:51:16;36.20;75.30
12025;DHT22;6073;53.230;10.444;2022-08-04T13:53:43;35.90;76.10
12025;DHT22;6073;53.230;10.444;2022-08-04T13:56:09;36.10;76.20
12025;DHT22;6073;53.230;10.444;2022-08-04T13:58:42;36.10;76.60
12025;DHT22;6073;53.230;10.444;2022-08-04T14:01:18;36.20;77.00
12025;DHT22;6073;53.230;10.444;2022-08-04T14:03:53;36.20;76.50
12025;DHT22;6073;53.230;10.444;2022-08-04T14:06:29;36.00;77.00
12025;DHT22;6073;53.230;10.444;2022-08-04T14:09:02;35.80;77.30
12025;DHT22;6073;53.230;10.444;2022-08-04T14:11:49;35.70;78.00
12025;DHT22;6073;53.230;10.444;2022-08-04T14:19:27;36.10;76.60
12025;DHT22;6073;53.230;10.444;2022-08-04T14:21:53;36.10;78.40
12025;DHT22;6073;53.230;10.444;2022-08-04T14:24:27;35.90;77.50
12025;DHT22;6073;53.230;10.444;2022-08-04T14:26:58;35.80;77.90
12025;DHT22;6073;53.230;10.444;2022-08-04T14:29:24;35.70;77.10
12025;DHT22;6073;53.230;10.444;2022-08-04T14:31:59;35.60;78.20
12025;DHT22;6073;53.230;10.444;2022-08-04T14:34:27;35.40;79.00
12025;DHT22;6073;53.230;10.444;2022-08-04T14:36:53;35.40;78.70
12025;DHT22;6073;53.230;10.444;2022-08-04T14:39:39;35.30;78.00
12025;DHT22;6073;53.230;10.444;2022-08-04T14:42:05;35.40;78.70
12025;DHT22;6073;53.230;10.444;2022-08-04T14:44:31;35.80;78.00
12025;DHT22;6073;53.230;10.444;2022-08-04T14:47:16;35.90;78.40
12025;DHT22;6073;53.230;10.444;2022-08-04T14:49:53;35.80;77.30
12025;DHT22;6073;53.230;10.444;2022-08-04T14:52:24;35.70;76.90
12025;DHT22;6073;53.230;10.444;2022-08-04T14:54:50;35.60;76.50
12025;DHT22;6073;53.230;10.444;2022-08-04T14:57:16;35.60;76.80
12025;DHT22;6073;53.230;10.444;2022-08-04T14:59:44;35.40;76.50
12025;DHT22;6073;53.230;10.444;2022-08-04T15:02:11;35.40;76.90
12025;DHT22;6073;53.230;10.444;2022-08-04T15:04:38;35.30;77.60
12025;DHT22;6073;53.230;10.444;2022-08-04T15:07:04;35.10;77.50
12025;DHT22;6073;53.230;10.444;2022-08-04T15:09:31;35.10;78.20
12025;DHT22;6073;53.230;10.444;2022-08-04T15:11:56;35.10;79.10
12025;DHT22;6073;53.230;10.444;2022-08-04T15:14:23;35.00;79.00
12025;DHT22;6073;53.230;10.444;2022-08-04T15:16:49;35.00;78.40
12025;DHT22;6073;53.230;10.444;2022-08-04T15:19:15;34.80;79.20
12025;DHT22;6073;53.230;10.444;2022-08-04T15:21:40;34.70;79.70
12025;DHT22;6073;53.230;10.444;2022-08-04T15:24:06;34.50;79.70
12025;DHT22;6073;53.230;10.444;2022-08-04T15:26:38;34.30;80.60
12025;DHT22;6073;53.230;10.444;2022-08-04T15:29:11;34.20;81.00
12025;DHT22;6073;53.230;10.444;2022-08-04T15:31:40;34.10;81.10
12025;DHT22;6073;53.230;10.444;2022-08-04T15:34:07;34.00;81.30
12025;DHT22;6073;53.230;10.444;2022-08-04T15:36:43;33.90;81.20
12025;DHT22;6073;53.230;10.444;2022-08-04T15:39:31;33.80;81.50
12025;DHT22;6073;53.230;10.444;2022-08-04T15:44:54;33.50;81.50
12025;DHT22;6073;53.230;10.444;2022-08-04T15:47:24;33.40;81.20
12025;DHT22;6073;53.230;10.444;2022-08-04T15:50:10;33.30;82.00
12025;DHT22;6073;53.230;10.444;2022-08-04T15:55:41;33.10;82.20
12025;DHT22;6073;53.230;10.444;2022-08-04T15:58:09;33.00;82.10
12025;DHT22;6073;53.230;10.444;2022-08-04T16:21:56;26.80;98.80
12025;DHT22;6073;53.230;10.444;2022-08-04T16:24:28;26.30;99.70
12025;DHT22;6073;53.230;10.444;2022-08-04T16:26:58;26.00;99.80
12025;DHT22;6073;53.230;10.444;2022-08-04T16:29:31;25.80;99.90
12025;DHT22;6073;53.230;10.444;2022-08-04T16:32:05;25.30;99.90
12025;DHT22;6073;53.230;10.444;2022-08-04T16:34:36;25.20;99.90
12025;DHT22;6073;53.230;10.444;2022-08-04T16:37:05;25.10;99.90
12025;DHT22;6073;53.230;10.444;2022-08-04T16:39:32;25.10;99.90
12025;DHT22;6073;53.230;10.444;2022-08-04T16:41:57;25.20;99.90
12025;DHT22;6073;53.230;10.444;2022-08-04T16:44:33;25.30;99.90
12025;DHT22;6073;53.230;10.444;2022-08-04T16:47:02;25.40;99.90
12025;DHT22;6073;53.230;10.444;2022-08-04T16:49:29;25.50;99.90
12025;DHT22;6073;53.230;10.444;2022-08-04T16:52:01;25.40;99.90
12025;DHT22;6073;53.230;10.444;2022-08-04T16:54:31;25.50;99.90
12025;DHT22;6073;53.230;10.444;2022-08-04T16:57:00;25.70;99.90
12025;DHT22;6073;53.230;10.444;2022-08-04T16:59:26;25.90;99.90
12025;DHT22;6073;53.230;10.444;2022-08-04T17:01:53;26.00;99.90
12025;DHT22;6073;53.230;10.444;2022-08-04T17:04:33;26.10;99.80
12025;DHT22;6073;53.230;10.444;2022-08-04T17:07:04;26.40;99.50
12025;DHT22;6073;53.230;10.444;2022-08-04T17:09:30;26.40;99.10
12025;DHT22;6073;53.230;10.444;2022-08-04T17:11:57;26.40;99.20
12025;DHT22;6073;53.230;10.444;2022-08-04T17:14:27;26.40;99.30
12025;DHT22;6073;53.230;10.444;2022-08-04T17:16:57;26.10;99.30
12025;DHT22;6073;53.230;10.444;2022-08-04T17:19:23;26.10;99.60
12025;DHT22;6073;53.230;10.444;2022-08-04T17:21:50;26.10;99.70
12025;DHT22;6073;53.230;10.444;2022-08-04T17:24:16;26.10;99.80
12025;DHT22;6073;53.230;10.444;2022-08-04T17:26:42;26.00;99.90
12025;DHT22;6073;53.230;10.444;2022-08-04T17:29:08;26.10;99.90
12025;DHT22;6073;53.230;10.444;2022-08-04T17:31:36;26.00;99.90
12025;DHT22;6073;53.230;10.444;2022-08-04T17:34:14;25.70;99.90
12025;DHT22;6073;53.230;10.444;2022-08-04T17:36:40;25.60;99.90
12025;DHT22;6073;53.230;10.444;2022-08-04T17:39:14;25.50;99.90
12025;DHT22;6073;53.230;10.444;2022-08-04T17:41:41;25.40;99.90
12025;DHT22;6073;53.230;10.444;2022-08-04T17:44:06;25.30;99.90
12025;DHT22;6073;53.230;10.444;2022-08-04T17:46:45;25.20;99.90
12025;DHT22;6073;53.230;10.444;2022-08-04T17:52:00;25.30;99.90
12025;DHT22;6073;53.230;10.444;2022-08-04T17:57:12;25.20;99.90
12025;DHT22;6073;53.230;10.444;2022-08-04T17:59:51;25.30;99.90
12025;DHT22;6073;53.230;10.444;2022-08-04T18:02:22;25.40;99.90
12025;DHT22;6073;53.230;10.444;2022-08-04T18:04:50;25.50;99.90
12025;DHT22;6073;53.230;10.444;2022-08-04T18:07:17;25.40;99.90
12025;DHT22;6073;53.230;10.444;2022-08-04T18:12:30;25.40;99.90
12025;DHT22;6073;53.230;10.444;2022-08-04T18:15:01;25.50;99.90
12025;DHT22;6073;53.230;10.444;2022-08-04T18:17:42;25.50;99.90
12025;DHT22;6073;53.230;10.444;2022-08-04T18:20:13;25.50;99.90
12025;DHT22;6073;53.230;10.444;2022-08-04T18:22:40;25.40;99.90
12025;DHT22;6073;53.230;10.444;2022-08-04T18:25:10;25.30;99.90
12025;DHT22;6073;53.230;10.444;2022-08-04T18:27:49;25.20;99.90
12025;DHT22;6073;53.230;10.444;2022-08-04T18:30:16;25.10;99.90
12025;DHT22;6073;53.230;10.444;2022-08-04T18:32:42;25.00;99.90
12025;DHT22;6073;53.230;10.444;2022-08-04T18:35:08;24.90;99.90
12025;DHT22;6073;53.230;10.444;2022-08-04T18:37:35;24.80;99.90
12025;DHT22;6073;53.230;10.444;2022-08-04T18:40:01;24.70;99.90
12025;DHT22;6073;53.230;10.444;2022-08-04T18:42:27;24.70;99.90
12025;DHT22;6073;53.230;10.444;2022-08-04T18:44:52;24.60;99.90
12025;DHT22;6073;53.230;10.444;2022-08-04T18:47:22;24.60;99.90
12025;DHT22;6073;53.230;10.444;2022-08-04T18:49:52;24.60;99.90
12025;DHT22;6073;53.230;10.444;2022-08-04T18:52:17;24.60;99.90
12025;DHT22;6073;53.230;10.444;2022-08-04T18:54:43;24.50;99.90
12025;DHT22;6073;53.230;10.444;2022-08-04T18:57:09;24.40;99.90
12025;DHT22;6073;53.230;10.444;2022-08-04T18:59:34;24.40;99.90
12025;DHT22;6073;53.230;10.444;2022-08-04T19:02:00;24.40;99.90
12025;DHT22;6073;53.230;10.444;2022-08-04T19:04:25;24.30;99.90
12025;DHT22;6073;53.230;10.444;2022-08-04T19:06:51;24.30;99.90
12025;DHT22;6073;53.230;10.444;2022-08-04T19:09:17;24.10;99.90
12025;DHT22;6073;53.230;10.444;2022-08-04T19:11:42;24.10;99.90
12025;DHT22;6073;53.230;10.444;2022-08-04T19:14:08;24.10;99.90
12025;DHT22;6073;53.230;10.444;2022-08-04T19:16:34;24.00;99.90
12025;DHT22;6073;53.230;10.444;2022-08-04T19:19:03;24.00;99.90
12025;DHT22;6073;53.230;10.444;2022-08-04T19:21:29;24.00;99.90
12025;DHT22;6073;53.230;10.444;2022-08-04T19:23:55;23.90;99.90
12025;DHT22;6073;53.230;10.444;2022-08-04T19:26:22;23.90;99.90
12025;DHT22;6073;53.230;10.444;2022-08-04T19:28:50;23.90;99.90
12025;DHT22;6073;53.230;10.444;2022-08-04T19:31:16;23.90;99.90
12025;DHT22;6073;53.230;10.444;2022-08-04T19:33:41;23.80;99.90
12025;DHT22;6073;53.230;10.444;2022-08-04T19:36:08;23.80;99.90
12025;DHT22;6073;53.230;10.444;2022-08-04T19:38:35;23.80;99.90
12025;DHT22;6073;53.230;10.444;2022-08-04T19:41:01;23.70;99.90